AirNav   Air Wisconsin Airman Trainee
 
 1634 users online  

48A Cochran Airport
Cochran, Georgia, USA

GOING TO COCHRAN?


FAA INFORMATION EFFECTIVE 25 APRIL 2019

Location

FAA Identifier: 48A
Lat/Long: 32-24-02.3812N / 083-16-42.2671W
32-24.039687N / 083-16.704452W
32.4006614 / -83.2784075
(estimated)
Elevation: 377.3 ft. / 115.0 m (surveyed)
Variation: 03W (1985)
From city: 4 miles E of COCHRAN, GA
Time zone: UTC -4 (UTC -5 during Standard Time)
Zip code: 31014

Airport Operations

Airport use: Open to the public
Activation date: 05/1941
Control tower: no
ARTCC: ATLANTA CENTER
FSS: MACON FLIGHT SERVICE STATION
NOTAMs facility: MCN (NOTAM-D service available)
Attendance: MON-SAT 0800-1200
Wind indicator: lighted
Segmented circle: yes
Lights: PAPI RWY 11 & 29 - CTAF. MIRL RWY 11/29 PRESET LOW DAWN-0800, DUSK-2100; TO ACTVT OR INCRS INTST - CTAF.
Beacon: white-green (lighted land airport)
Operates sunset to sunrise.

Airport Communications

CTAF/UNICOM: 122.8
WX AWOS-3PT: 120.975 (478-271-5897)
ATLANTA APPROACH: 124.2 [0645-2300]
ATLANTA DEPARTURE: 124.2 [0645-2300]
WX AWOS-3 at EZM (13 nm SE): 119.425 (478-374-9979)
WX AWOS-3 at DBN (18 nm NE): 118.425 (478-277-9051)
  • ATLANTA LARGE TRACON PROVIDES APCH/DEP SVC 0615-2300 ON FREQ 124.2/279.6; ATLANTA ARTCC PROVIDES APCH/DEP SVC 2300-0615 ON FREQS 134.5/360.75 (MACON RCAG).

Nearby radio navigation aids

VOR radial/distance  VOR name  Freq  Var
VNAr044/15.8VIENNA VORTAC116.5001E
DBNr252/24.7DUBLIN VORTAC113.1005W
MCNr132/25.5MACON VORTAC114.2001E

 
NDB name  Hdg/Dist  Freq  Var  ID
CREKE254/14.425104WDB -.. -...
EASTMAN343/17.336604WEZM . --.. --
MC RAE316/27.228003WMQW -- --.- .--
MONTEZUMA091/37.042604WIZS .. --.. ...
CONEY057/38.240006WOHY --- .... -.--

Airport Services

Fuel available: 100LL JET-A+
24HR FUEL SELF SERV W/MAJOR CREDIT CARD.
Parking: tiedowns
Airframe service: MINOR
Powerplant service: MINOR
Bottled oxygen: NONE
Bulk oxygen: NONE

Runway Information

Runway 11/29

Dimensions: 4401 x 75 ft. / 1341 x 23 m
Surface: asphalt, in good condition
Runway edge lights: medium intensity
RUNWAY 11  RUNWAY 29
Latitude: 32-24.184422N32-24.008357N
Longitude: 083-17.227817W083-16.397965W
Elevation: 377.3 ft.333.5 ft.
Traffic pattern: leftleft
Runway heading: 107 magnetic, 104 true287 magnetic, 284 true
Markings: nonprecision, in good conditionnonprecision, in good condition
Visual slope indicator: 2-light PAPI on left (3.25 degrees glide path)2-light PAPI on left (3.00 degrees glide path)
Touchdown point: yes, no lightsyes, no lights
Obstructions: 19 ft. trees, 675 ft. from runway, 250 ft. right of centerline, 25:1 slope to clear5 ft. fence, 290 ft. from runway, 253 ft. left of centerline, 18:1 slope to clear

Runway 5/23

Dimensions: 3202 x 50 ft. / 976 x 15 m
Surface: asphalt, in good condition
Weight bearing capacity: 
Single wheel: 25.0
Operational restrictions: RWY 5/23 IS DAYLIGHT USE ONLY.
RUNWAY 5  RUNWAY 23
Latitude: 32-23.778305N32-24.144210N
Longitude: 083-16.779745W083-16.330998W
Elevation: 324.4 ft.332.8 ft.
Traffic pattern: leftleft
Runway heading: 049 magnetic, 046 true229 magnetic, 226 true
Markings: nonprecision, in good conditionnonprecision, in good condition
Touchdown point: yes, no lightsyes, no lights
Obstructions: 22 ft. trees, 266 ft. from runway, 253 ft. right of centerline, 3:1 slope to clear18 ft. trees, 488 ft. from runway, 255 ft. left of centerline, 16:1 slope to clear

Airport Ownership and Management from official FAA records

Ownership: Publicly-owned
Owner: CITY OF COCHRAN
CITY HALL, PO BOX 8
COCHRAN, GA 31014
Phone 478-934-6346
Manager: JIM WASHBURN
829 GA HWY 126
COCHRAN, GA 31014
Phone (478) 230-0860
ALT PHONE 478-230-7843

Airport Operational Statistics

Aircraft based on the field: 20
Single engine airplanes: 17
Multi engine airplanes: 3
    
Aircraft operations: avg 38/day *
82% local general aviation
15% transient general aviation
3% military
* for 12-month period ending 31 December 2018

Additional Remarks

NON STD TURNAROUNDS, INADEQUATE SEPARATION RUNWAY 05/23.

Instrument Procedures

NOTE: All procedures below are presented as PDF files. If you need a reader for these files, you should download the free Adobe Reader.

NOT FOR NAVIGATION. Please procure official charts for flight.
FAA instrument procedures published for use from 25 April 2019 at 0901Z to 23 May 2019 at 0900Z.

 
IAPs - Instrument Approach Procedures
RNAV (GPS) RWY 11 **CHANGED**   download (212KB)
RNAV (GPS) RWY 29 **CHANGED**   download (202KB)
VOR/DME RWY 05 **CHANGED**   download (150KB)
NOTE: Special Take-Off Minimums/Departure Procedures apply   download (189KB)

Other nearby airports with instrument procedures:

KEZM - Heart of Georgia Regional Airport (13 nm SE)
KDBN - W H 'Bud' Barron Airport (18 nm NE)
KWRB - Robins Air Force Base (21 nm NW)
KPXE - Perry-Houston County Airport (26 nm W)
KMCN - Middle Georgia Regional Airport (26 nm NW)
 
Loc | Ops | Rwys | IFR | FBO | Links
Com | Nav | Svcs | Stats | Notes
Area around 48A (Cochran Airport)
 
Road maps at: MapQuest Bing Google
 
Aerial photo
WARNING: Photo may not be current or correct
Aerial photo of 48A (Cochran Airport)
Photo taken 26-Jan-2013
looking northwest.

Do you have a better or more recent aerial photo of Cochran Airport that you would like to share? If so, please send us your photo.

 
Sectional chart

 
Airport distance calculator
Flying to Cochran Airport? Find the distance to fly.

From to 48A

Sunrise and sunset
Times for 20-May-2019
 Local
(UTC-4)
 Zulu
(UTC)
Morning civil twilight06:0510:05
Sunrise06:3310:33
Sunset20:2600:26
Evening civil twilight20:5400:54

Current date and time
Zulu (UTC)  20-May-2019 17:52:25
Local (UTC-4)  20-May-2019 13:52:25
 
METAR
KEZM 
13nm SE 
201735Z AUTO 26009KT 220V280 10SM SCT049 31/18 A3005 RMK AO2 T03070182
KDBN 
18nm NE 
201735Z AUTO 25005KT SCT055 SCT070 30/17 A3004 RMK AO2 PWINO
KWRB 
20nm NW 
201656Z 25007KT 10SM FEW050 31/18 A3002 RMK AO2A SLP165 T03050179
KMCN 
25nm NW 
201653Z 31011KT 10SM CLR 32/18 A3003 RMK AO2 SLP166 T03170183
KPXE 
26nm W 
201735Z AUTO 27008KT 10SM BKN049 31/18 A3004 RMK AO2 T03060184
TAF
KWRB 
20nm NW 
201300Z 2013/2119 28006KT 9999 SCT050 BKN090 QNH2998INS BECMG 2111/2112 VRB06KT 9999 FEW050 SCT090 QNH2998INS TX34/2019Z TN18/2111Z
NOTAMs
Click for the latest NOTAMs
NOTAMs are issued by the DoD/FAA and will open in a separate window not controlled by AirNav.

 

 
 

FBO, Fuel Providers, and Aircraft Ground Support

  
 Business Name 
 
 Contact 
 
 Services / Description 
 
Fuel Prices
 
Comments
  
Cochran Municipal Airport Authority 478-230-9619
478-230-7843
[email]
Aviation fuel, Aircraft parking (ramp or tiedown), Hangars, Hangar leasing / sales, Passenger terminal and lounge, Aircraft maintenance, Courtesy transportation, ...

More info about Cochran Municipal Airport Authority
Phillips 66
100LL
SS $4.29 
 Updated 07-May-2019
 
   write
SS=Self service
Update Fuel Prices
 

Would you like to see your business listed on this page?

 If your business provides an interesting product or service to pilots, flight crews, aircraft, or users of the Cochran Airport, you should consider listing it here.  To start the listing process, click on the button below
 
Add a business
 

Other Pages about Cochran Airport

Update a link
 
Copyright © AirNav, LLC. All rights reserved. Privacy Policy  Contact